Time;durP1;ratioP1;P1;durP2;ratioP2;P2;SDS_P1;SDS_P2;PMS_P1;PMS_P2;Temp;Humidity;BMP_temperature;BMP_pressure;BME280_temperature;BME280_humidity;BME280_pressure;Samples;Min_cycle;Max_cycle;Signal;HPM_P1;HPM_P2
2023/06/14 00:02:01;;;;;;;14.75;3.17;;;;;;;-143.48;48.24;118439.88;5093535;28;20028;-40
2023/06/14 00:04:26;;;;;;;9.02;3.35;;;;;;;-143.48;48.48;118439.88;5093978;28;20024;-40
2023/06/14 00:06:52;;;;;;;17.05;3.20;;;;;;;-143.48;48.20;118439.88;5093443;28;20027;-40
2023/06/14 00:09:18;;;;;;;10.65;3.13;;;;;;;-143.48;48.13;118439.88;5093794;28;20468;-41
2023/06/14 00:11:44;;;;;;;7.07;3.25;;;;;;;-143.48;47.79;118439.88;5058576;28;20123;-41
2023/06/14 00:14:09;;;;;;;8.63;2.90;;;;;;;-143.48;47.49;118439.88;5093854;28;20441;-40
2023/06/14 00:16:35;;;;;;;10.40;3.45;;;;;;;-143.48;47.27;118439.88;5075778;28;20027;-40
2023/06/14 00:19:05;;;;;;;6.47;2.90;;;;;;;-143.48;47.38;118439.88;5093878;28;20512;-40
2023/06/14 00:21:31;;;;;;;8.57;3.40;;;;;;;-143.48;46.81;118439.88;5093839;28;20024;-38
2023/06/14 00:23:57;;;;;;;9.25;3.00;;;;;;;-143.48;47.10;118439.88;5093498;28;20027;-38
2023/06/14 00:26:23;;;;;;;8.48;3.10;;;;;;;-143.48;46.73;118439.88;5093184;28;20031;-41
2023/06/14 00:28:48;;;;;;;10.57;3.20;;;;;;;-143.48;47.08;118439.88;5093576;28;20054;-40
2023/06/14 00:31:13;;;;;;;5.13;3.00;;;;;;;-143.48;47.01;118439.88;5093187;28;20054;-40
2023/06/14 00:33:39;;;;;;;9.18;3.30;;;;;;;-143.48;47.11;118439.88;5093325;28;20078;-40
2023/06/14 00:36:04;;;;;;;12.50;3.22;;;;;;;-143.48;47.10;118439.88;5093141;28;20386;-40
2023/06/14 00:38:30;;;;;;;6.13;3.17;;;;;;;-143.48;46.66;118439.88;5093007;28;20035;-40
2023/06/14 00:40:55;;;;;;;9.73;3.13;;;;;;;-143.48;46.71;118439.88;5093343;28;20020;-40
2023/06/14 00:43:20;;;;;;;7.05;3.10;;;;;;;-143.48;46.59;118439.88;5093379;28;20432;-40
2023/06/14 00:45:46;;;;;;;11.32;3.17;;;;;;;-143.48;46.72;118439.88;5093037;28;20057;-40
2023/06/14 00:48:13;;;;;;;13.40;3.10;;;;;;;-143.48;46.24;118439.88;5093000;28;20131;-40
2023/06/14 00:50:40;;;;;;;10.32;3.25;;;;;;;-143.48;46.35;118439.88;5092827;28;20491;-40
2023/06/14 00:53:06;;;;;;;9.38;3.00;;;;;;;-143.48;46.11;118439.88;5093094;28;20467;-40
2023/06/14 00:55:32;;;;;;;7.28;2.80;;;;;;;-143.48;46.03;118439.88;5092970;28;20020;-40
2023/06/14 00:57:58;;;;;;;10.93;3.20;;;;;;;-143.48;45.67;118439.88;5093099;28;20463;-40
2023/06/14 01:00:23;;;;;;;6.53;3.13;;;;;;;-143.48;45.54;118439.88;5093322;28;20028;-40
2023/06/14 01:02:52;;;;;;;10.25;3.38;;;;;;;-143.48;45.50;118439.88;5093031;28;20435;-40
2023/06/14 01:05:18;;;;;;;11.60;3.13;;;;;;;-143.48;45.67;118439.88;5092962;28;20042;-40
2023/06/14 01:07:49;;;;;;;10.48;3.15;;;;;;;-143.48;45.64;118439.88;5092963;28;20047;-40
2023/06/14 01:10:20;;;;;;;8.63;3.10;;;;;;;-143.48;45.74;118439.88;5092931;28;20078;-40
2023/06/14 01:13:08;;;;;;;10.38;3.10;;;;;;;-143.48;45.75;118439.88;5096648;28;20028;-40
2023/06/14 01:15:35;;;;;;;8.77;3.10;;;;;;;-143.48;45.69;118439.88;5096383;28;20063;-40
2023/06/14 01:18:02;;;;;;;10.93;3.10;;;;;;;-143.48;45.02;118439.88;5096979;28;20455;-40
2023/06/14 01:20:29;;;;;;;7.75;3.00;;;;;;;-143.48;45.75;118439.88;5096915;28;20020;-40
2023/06/14 01:22:55;;;;;;;14.45;3.00;;;;;;;-143.48;45.53;118439.88;5096553;28;20426;-40
2023/06/14 01:25:22;;;;;;;5.82;2.90;;;;;;;-143.48;45.83;118439.88;5096354;28;20055;-40
2023/06/14 01:28:01;;;;;;;11.30;3.10;;;;;;;-143.48;45.65;118439.88;5096452;28;20108;-40
2023/06/14 01:30:27;;;;;;;11.23;3.17;;;;;;;-143.48;45.17;118439.88;5096254;28;20020;-40
2023/06/14 01:32:54;;;;;;;7.45;3.00;;;;;;;-143.48;45.14;118439.88;5096045;28;20119;-40
2023/06/14 01:35:20;;;;;;;20.13;3.03;;;;;;;-143.48;44.95;118439.88;5096079;28;20103;-40
2023/06/14 01:37:49;;;;;;;5.30;2.70;;;;;;;-143.48;45.24;118439.88;5095987;28;20426;-40
2023/06/14 01:40:19;;;;;;;9.30;3.08;;;;;;;-143.48;44.92;118439.88;5095984;28;20074;-40
2023/06/14 01:42:46;;;;;;;6.13;2.80;;;;;;;-143.48;44.93;118439.88;5095946;28;20098;-40
2023/06/14 01:45:12;;;;;;;9.85;2.85;;;;;;;-143.48;44.81;118439.88;5096147;28;20060;-42
2023/06/14 01:47:38;;;;;;;13.27;3.40;;;;;;;-143.48;44.96;118439.88;5095788;28;20486;-40
2023/06/14 01:50:04;;;;;;;11.68;2.97;;;;;;;-143.48;44.57;118439.88;5095685;28;20101;-40
2023/06/14 01:52:29;;;;;;;7.82;2.80;;;;;;;-143.48;44.91;118439.88;5096151;28;20421;-40
2023/06/14 01:54:55;;;;;;;7.43;2.95;;;;;;;-143.48;44.27;118439.88;5095651;28;20024;-40
2023/06/14 01:57:22;;;;;;;10.75;2.97;;;;;;;-143.48;44.88;118439.88;5095669;28;20030;-40
2023/06/14 01:59:48;;;;;;;14.40;2.97;;;;;;;-143.48;45.10;118439.88;5095547;28;20027;-40
2023/06/14 02:02:13;;;;;;;6.63;2.90;;;;;;;-143.48;44.85;118439.88;5095850;28;20063;-40
2023/06/14 02:04:38;;;;;;;7.88;3.22;;;;;;;-143.48;45.34;118439.88;5095521;28;20038;-40
2023/06/14 02:07:04;;;;;;;8.13;2.80;;;;;;;-143.48;45.15;118439.88;5095684;28;20032;-40
2023/06/14 02:09:29;;;;;;;7.90;2.70;;;;;;;-143.48;44.96;118439.88;5095978;28;20105;-40
2023/06/14 02:11:54;;;;;;;14.60;3.00;;;;;;;-143.48;44.19;118439.88;5095535;28;20032;-40
2023/06/14 02:14:20;;;;;;;10.55;2.80;;;;;;;-143.48;44.72;118439.88;5095215;28;20016;-41
2023/06/14 02:16:48;;;;;;;6.10;2.80;;;;;;;-143.48;44.94;118439.88;5095799;28;20035;-40
2023/06/14 02:19:15;;;;;;;16.00;3.10;;;;;;;-143.48;44.73;118439.88;5095258;28;20359;-40
2023/06/14 02:21:41;;;;;;;10.23;3.20;;;;;;;-143.48;44.78;118439.88;5094850;28;20012;-40
2023/06/14 02:24:06;;;;;;;12.88;3.22;;;;;;;-143.48;45.37;118439.88;5095361;28;20213;-40
2023/06/14 02:26:32;;;;;;;7.95;3.10;;;;;;;-143.48;45.37;118439.88;5095177;28;20023;-40
2023/06/14 02:28:58;;;;;;;8.80;3.10;;;;;;;-143.48;45.62;118439.88;5095151;28;20053;-41
2023/06/14 02:31:24;;;;;;;15.15;3.13;;;;;;;-143.48;45.42;118439.88;5077231;28;20164;-38
2023/06/14 02:33:49;;;;;;;10.10;2.67;;;;;;;-143.48;45.78;118439.88;5095213;28;20102;-40
2023/06/14 02:36:14;;;;;;;7.65;2.70;;;;;;;-143.48;45.70;118439.88;5094864;28;20472;-40
2023/06/14 02:38:40;;;;;;;8.73;2.80;;;;;;;-143.48;46.11;118439.88;5094763;28;20028;-40
2023/06/14 02:41:06;;;;;;;6.63;2.80;;;;;;;-143.48;46.31;118439.88;5094753;28;20023;-41
2023/06/14 02:43:31;;;;;;;9.63;2.85;;;;;;;-143.48;46.70;118439.88;5095021;28;20110;-40
2023/06/14 02:45:56;;;;;;;13.02;3.03;;;;;;;-143.48;46.81;118439.88;5094886;28;20078;-40
2023/06/14 02:48:22;;;;;;;9.80;3.00;;;;;;;-143.48;46.86;118439.88;5094611;28;20535;-41
2023/06/14 02:50:47;;;;;;;12.88;3.17;;;;;;;-143.48;47.49;118439.88;5076335;28;20048;-53
2023/06/14 02:53:12;;;;;;;13.63;2.78;;;;;;;-143.48;47.12;118439.88;5094494;28;20486;-40
2023/06/14 02:55:39;;;;;;;10.73;2.80;;;;;;;-143.48;47.45;118439.88;5094784;28;20020;-40
2023/06/14 02:58:05;;;;;;;6.13;2.90;;;;;;;-143.48;47.44;118439.88;5076283;28;20107;-40
2023/06/14 03:00:30;;;;;;;9.13;2.75;;;;;;;-143.48;47.96;118439.88;5095003;28;20502;-40
2023/06/14 03:02:56;;;;;;;11.40;2.88;;;;;;;-143.48;48.49;118439.88;5094366;28;20016;-40
2023/06/14 03:05:21;;;;;;;8.23;3.03;;;;;;;-143.48;49.17;118439.88;5094350;28;20520;-40
2023/06/14 03:07:47;;;;;;;14.45;3.20;;;;;;;-143.48;48.62;118439.88;5094767;28;20079;-40
2023/06/14 03:10:13;;;;;;;5.75;2.50;;;;;;;-143.48;48.82;118439.88;5094439;28;20021;-40
2023/06/14 03:12:38;;;;;;;5.28;2.60;;;;;;;-143.48;48.62;118439.88;5094579;28;20106;-40
2023/06/14 03:15:04;;;;;;;12.73;2.88;;;;;;;-143.48;48.79;118439.88;5094074;28;20077;-40
2023/06/14 03:17:33;;;;;;;8.02;2.63;;;;;;;-143.48;49.39;118439.88;5094319;28;20125;-40
2023/06/14 03:19:58;;;;;;;5.00;2.90;;;;;;;-143.48;49.73;118439.88;5094244;28;20028;-40
2023/06/14 03:22:25;;;;;;;7.50;2.70;;;;;;;-143.48;49.74;118439.88;5094214;28;20027;-40
2023/06/14 03:24:51;;;;;;;5.82;2.70;;;;;;;-143.48;49.51;118439.88;5093859;28;20012;-40
2023/06/14 03:27:16;;;;;;;10.60;3.85;;;;;;;-143.48;49.73;118439.88;5094163;28;20024;-40
2023/06/14 03:29:42;;;;;;;7.50;2.63;;;;;;;-143.48;49.58;118439.88;5094004;28;20387;-41
2023/06/14 03:32:08;;;;;;;7.82;2.95;;;;;;;-143.48;49.59;118439.88;5094015;28;20339;-40
2023/06/14 03:34:33;;;;;;;11.82;2.90;;;;;;;-143.48;49.65;118439.88;5093078;28;20035;-40
2023/06/14 03:36:58;;;;;;;7.85;2.83;;;;;;;-143.48;49.28;118439.88;5093705;28;20091;-40
2023/06/14 03:39:24;;;;;;;4.57;3.10;;;;;;;-143.48;49.31;118439.88;5093660;28;20020;-40
2023/06/14 03:41:49;;;;;;;16.83;3.05;;;;;;;-143.48;50.03;118439.88;5093993;28;20024;-40
2023/06/14 03:44:17;;;;;;;11.75;2.80;;;;;;;-143.48;49.85;118439.88;5093980;28;20463;-41
2023/06/14 03:46:42;;;;;;;10.30;2.78;;;;;;;-143.48;49.75;118439.88;5093933;28;20020;-40
2023/06/14 03:49:08;;;;;;;5.78;2.72;;;;;;;-143.48;49.84;118439.88;5075524;28;20032;-40
2023/06/14 03:51:35;;;;;;;11.18;3.03;;;;;;;-143.48;50.14;118439.88;5093477;28;20446;-40
2023/06/14 03:54:01;;;;;;;5.55;2.88;;;;;;;-143.48;49.99;118439.88;5093451;28;20131;-40
2023/06/14 03:56:26;;;;;;;14.63;2.83;;;;;;;-143.48;50.01;118439.88;5093863;28;20051;-40
2023/06/14 03:58:52;;;;;;;14.63;3.03;;;;;;;-143.48;50.63;118439.88;5093734;28;20366;-40
2023/06/14 04:01:17;;;;;;;6.20;2.92;;;;;;;-143.48;50.25;118439.88;5093970;28;20024;-40
2023/06/14 04:03:43;;;;;;;6.10;3.00;;;;;;;-143.48;50.47;118439.88;5093702;28;20020;-40
2023/06/14 04:06:08;;;;;;;13.98;3.20;;;;;;;-143.48;51.12;118439.88;5093467;28;20482;-40
2023/06/14 04:08:34;;;;;;;13.18;3.10;;;;;;;-143.48;51.29;118439.88;5093349;28;20028;-40
2023/06/14 04:11:00;;;;;;;5.65;2.95;;;;;;;-143.48;51.39;118439.88;5093673;28;20058;-40
2023/06/14 04:13:25;;;;;;;5.55;2.95;;;;;;;-143.48;51.45;118439.88;5093333;28;20032;-40
2023/06/14 04:15:51;;;;;;;6.25;2.97;;;;;;;-143.48;51.63;118439.88;5093876;28;20027;-40
2023/06/14 04:18:17;;;;;;;7.45;3.00;;;;;;;-143.48;52.54;118439.88;5093667;28;20028;-40
2023/06/14 04:20:43;;;;;;;9.25;3.00;;;;;;;-143.48;52.07;118439.88;5093637;28;20549;-40
2023/06/14 04:23:21;;;;;;;8.05;2.83;;;;;;;-143.48;51.69;118439.88;5093718;28;20020;-40
2023/06/14 04:25:47;;;;;;;6.15;2.92;;;;;;;-143.48;52.11;118439.88;5075297;28;20036;-41
2023/06/14 04:28:18;;;;;;;11.18;3.13;;;;;;;-143.48;52.42;118439.88;5093606;28;20117;-39
2023/06/14 04:30:47;;;;;;;11.10;3.05;;;;;;;-143.48;52.83;118439.88;5093766;28;20035;-39
2023/06/14 04:33:13;;;;;;;10.27;3.13;;;;;;;-143.48;53.07;118439.88;5093345;28;20028;-39
2023/06/14 04:35:40;;;;;;;19.13;3.60;;;;;;;-143.48;52.50;118439.88;5075156;28;20021;-39
2023/06/14 04:38:09;;;;;;;8.98;2.95;;;;;;;-143.48;53.00;118439.88;5093522;28;20099;-39
2023/06/14 04:40:42;;;;;;;9.32;3.00;;;;;;;-143.48;53.04;118439.88;5093265;28;20027;-39
2023/06/14 04:43:12;;;;;;;11.82;3.05;;;;;;;-143.48;52.95;118439.88;5075092;28;20032;-39
2023/06/14 04:45:37;;;;;;;10.15;3.20;;;;;;;-143.48;53.28;118439.88;5095089;28;20016;-40
2023/06/14 04:48:03;;;;;;;11.73;3.10;;;;;;;-143.48;53.42;118439.88;5097629;28;20058;-41
2023/06/14 04:50:29;;;;;;;10.32;2.80;;;;;;;-143.48;52.24;118439.88;5097016;28;20055;-44
2023/06/14 04:52:55;;;;;;;12.85;2.90;;;;;;;-143.48;51.83;118439.88;5097081;28;20112;-40
2023/06/14 04:55:20;;;;;;;6.80;3.20;;;;;;;-143.48;52.20;118439.88;5097472;28;20452;-39
2023/06/14 04:57:46;;;;;;;9.80;3.20;;;;;;;-143.48;52.32;118439.88;5096843;28;20028;-39
2023/06/14 05:00:12;;;;;;;7.35;3.00;;;;;;;-143.48;52.20;118439.88;5096786;28;20073;-39
2023/06/14 05:02:37;;;;;;;6.00;2.78;;;;;;;-143.48;52.44;118439.88;5096689;28;20035;-39
2023/06/14 05:05:06;;;;;;;8.43;3.13;;;;;;;-143.48;51.47;118439.88;5097061;28;20032;-39
2023/06/14 05:07:33;;;;;;;6.30;3.22;;;;;;;-143.48;51.53;118439.88;5096996;28;20028;-40
2023/06/14 05:09:59;;;;;;;7.63;3.00;;;;;;;-143.48;52.00;118439.88;5097012;28;20085;-39
2023/06/14 05:12:24;;;;;;;15.32;3.05;;;;;;;-143.48;50.61;118439.88;5096537;28;20024;-39
2023/06/14 05:14:50;;;;;;;4.80;2.90;;;;;;;-143.48;49.46;118439.88;5096607;28;20363;-39
2023/06/14 05:17:16;;;;;;;9.85;2.90;;;;;;;-143.48;49.65;118439.88;5096705;28;20023;-39
2023/06/14 05:19:42;;;;;;;8.35;3.10;;;;;;;-143.48;49.79;118439.88;5096767;28;20020;-40
2023/06/14 05:22:07;;;;;;;5.88;3.10;;;;;;;-143.48;50.27;118439.88;5096391;28;20382;-39
2023/06/14 05:24:32;;;;;;;7.55;2.90;;;;;;;-143.48;49.74;118439.88;5096328;28;20032;-39
2023/06/14 05:26:58;;;;;;;6.78;3.00;;;;;;;-143.48;49.52;118439.88;5078091;28;20463;-39
2023/06/14 05:29:24;;;;;;;7.68;3.45;;;;;;;-143.48;48.22;118439.88;5096275;28;20109;-39
2023/06/14 05:31:49;;;;;;;12.95;3.20;;;;;;;-143.48;44.66;118439.88;5096326;28;20106;-39
2023/06/14 05:34:14;;;;;;;5.40;2.80;;;;;;;-143.48;41.81;118439.88;5096625;28;20020;-39
2023/06/14 05:36:40;;;;;;;9.63;3.00;;;;;;;-143.48;39.55;118439.88;5096265;28;20028;-39
2023/06/14 05:39:06;;;;;;;10.88;2.70;;;;;;;-143.48;38.11;118439.88;5096009;28;20533;-40
2023/06/14 05:41:32;;;;;;;6.72;2.80;;;;;;;-143.48;36.02;118439.88;5096273;28;20032;-40
2023/06/14 05:43:57;;;;;;;7.18;2.78;;;;;;;-143.48;36.04;118439.88;5095902;28;20031;-40
2023/06/14 05:46:25;;;;;;;8.25;2.80;;;;;;;-143.48;34.52;118439.88;5096261;28;20066;-40
2023/06/14 05:48:54;;;;;;;5.70;2.95;;;;;;;-143.48;33.85;118439.88;5096197;28;20028;-40
2023/06/14 05:51:19;;;;;;;7.18;2.67;;;;;;;-143.48;34.21;118439.88;5096061;28;20056;-40
2023/06/14 05:53:48;;;;;;;8.43;2.90;;;;;;;-143.48;33.26;118439.88;5095800;28;20059;-40
2023/06/14 05:56:14;;;;;;;7.63;3.05;;;;;;;-143.48;32.60;118439.88;5060757;28;20126;-41
2023/06/14 05:58:39;;;;;;;6.50;3.17;;;;;;;-143.48;32.90;118439.88;5095725;28;20099;-40
2023/06/14 06:01:05;;;;;;;12.23;2.72;;;;;;;-143.48;35.32;118439.88;5095665;28;20442;-40
2023/06/14 06:03:30;;;;;;;7.30;2.85;;;;;;;-143.48;34.70;118439.88;5095476;28;20416;-41
2023/06/14 06:05:55;;;;;;;10.68;3.00;;;;;;;-143.48;34.17;118439.88;5095831;28;20046;-40
2023/06/14 06:08:21;;;;;;;17.40;2.88;;;;;;;-143.48;33.41;118439.88;5095799;28;20024;-40
2023/06/14 06:10:46;;;;;;;7.35;3.00;;;;;;;-143.48;34.92;118439.88;5095250;28;20454;-40
2023/06/14 06:13:11;;;;;;;10.82;2.80;;;;;;;-143.48;33.49;118439.88;5095437;28;20028;-41
2023/06/14 06:15:37;;;;;;;7.50;2.95;;;;;;;-143.48;32.66;118439.88;5095340;28;20024;-41
2023/06/14 06:18:02;;;;;;;11.02;3.00;;;;;;;-143.48;34.83;118439.88;5095484;28;20387;-40
2023/06/14 06:20:30;;;;;;;10.45;2.92;;;;;;;-143.48;34.03;118439.88;5095181;28;20043;-40
2023/06/14 06:22:56;;;;;;;14.52;3.30;;;;;;;-143.48;34.33;118439.88;5094993;28;20442;-40
2023/06/14 06:25:22;;;;;;;7.90;2.90;;;;;;;-143.48;33.15;118439.88;5094374;28;20024;-40
2023/06/14 06:27:47;;;;;;;6.32;2.67;;;;;;;-143.48;32.46;118439.88;5095411;28;20036;-40
2023/06/14 06:30:13;;;;;;;5.05;2.90;;;;;;;-143.48;34.15;118439.88;5095128;28;20074;-40
2023/06/14 06:32:38;;;;;;;5.47;2.65;;;;;;;-143.48;33.91;118439.88;5095185;28;20027;-40
2023/06/14 06:35:06;;;;;;;10.93;3.00;;;;;;;-143.48;32.79;118439.88;5095449;28;20028;-40
2023/06/14 06:37:31;;;;;;;13.93;3.30;;;;;;;-143.48;33.79;118439.88;5095127;28;20048;-41
2023/06/14 06:39:57;;;;;;;9.55;2.92;;;;;;;-143.48;35.71;118439.88;5094886;28;20052;-40
2023/06/14 06:42:22;;;;;;;8.05;3.10;;;;;;;-143.48;35.03;118439.88;5094873;28;20070;-41
2023/06/14 06:44:48;;;;;;;9.77;3.00;;;;;;;-143.48;36.79;118439.88;5095143;28;20024;-42
2023/06/14 06:47:13;;;;;;;10.80;2.97;;;;;;;-143.48;35.93;118439.88;5076566;28;20024;-40
2023/06/14 06:49:39;;;;;;;4.72;2.47;;;;;;;-143.48;35.58;118439.88;5094852;28;20027;-39
2023/06/14 06:52:06;;;;;;;7.63;3.17;;;;;;;-143.48;35.36;118439.88;5095042;28;20027;-40
2023/06/14 06:54:31;;;;;;;10.88;3.00;;;;;;;-143.48;34.83;118439.88;5094653;28;20444;-40
2023/06/14 06:56:57;;;;;;;6.38;2.63;;;;;;;-143.48;35.91;118439.88;5094497;28;20055;-40
2023/06/14 06:59:22;;;;;;;8.70;2.95;;;;;;;-143.48;36.43;118439.88;5095083;28;20082;-40
2023/06/14 07:01:48;;;;;;;9.20;2.80;;;;;;;-143.48;35.27;118439.88;5094714;28;20052;-40
2023/06/14 07:04:13;;;;;;;14.43;2.85;;;;;;;-143.48;34.89;118439.88;5094498;28;20024;-40
2023/06/14 07:06:39;;;;;;;8.80;2.75;;;;;;;-143.48;34.65;118439.88;5076209;28;20450;-40
2023/06/14 07:09:08;;;;;;;14.90;3.33;;;;;;;-143.48;35.35;118439.88;5093378;28;20374;-40
2023/06/14 07:11:33;;;;;;;9.00;3.10;;;;;;;-143.48;34.78;118439.88;5094224;28;20538;-40
2023/06/14 07:13:58;;;;;;;8.80;2.90;;;;;;;-143.48;34.91;118439.88;5094303;28;20098;-40
2023/06/14 07:16:24;;;;;;;7.70;2.55;;;;;;;-143.48;34.58;118439.88;5094368;28;20027;-40
2023/06/14 07:18:49;;;;;;;7.40;2.75;;;;;;;-143.48;34.06;118439.88;5094513;28;20107;-40
2023/06/14 07:21:14;;;;;;;11.50;2.92;;;;;;;-143.48;33.41;118439.88;5094170;28;20094;-40
2023/06/14 07:23:40;;;;;;;9.90;3.00;;;;;;;-143.48;33.06;118439.88;5094679;28;20019;-40
2023/06/14 07:26:05;;;;;;;7.78;2.90;;;;;;;-143.48;33.12;118439.88;5094072;28;20092;-41
2023/06/14 07:28:31;;;;;;;11.70;3.15;;;;;;;-143.48;33.83;118439.88;5094320;28;20076;-41
2023/06/14 07:30:56;;;;;;;8.68;3.10;;;;;;;-143.48;33.80;118439.88;5094053;28;20470;-40
2023/06/14 07:33:21;;;;;;;10.00;3.03;;;;;;;-143.48;34.42;118439.88;5093903;28;20467;-40
2023/06/14 07:35:47;;;;;;;6.47;2.97;;;;;;;-143.48;34.59;118439.88;5094192;28;20028;-40
2023/06/14 07:38:13;;;;;;;8.43;2.90;;;;;;;-143.48;33.81;118439.88;5075590;28;20020;-40
2023/06/14 07:40:38;;;;;;;7.95;3.00;;;;;;;-143.48;33.33;118439.88;5093851;28;20020;-40
2023/06/14 07:43:03;;;;;;;9.45;2.88;;;;;;;-143.48;32.99;118439.88;5075649;28;20027;-40
2023/06/14 07:45:29;;;;;;;6.13;3.00;;;;;;;-143.48;32.50;118439.88;5094037;28;20103;-40
2023/06/14 07:47:55;;;;;;;7.10;2.80;;;;;;;-143.48;32.24;118439.88;5094130;28;20020;-40
2023/06/14 07:50:20;;;;;;;9.15;2.50;;;;;;;-143.48;32.80;118439.88;5093500;28;20048;-40
2023/06/14 07:52:46;;;;;;;5.43;2.58;;;;;;;-143.48;32.74;118439.88;5093906;28;20111;-40
2023/06/14 07:55:12;;;;;;;7.43;2.33;;;;;;;-143.48;32.87;118439.88;5093643;28;20028;-40
2023/06/14 07:57:37;;;;;;;9.20;2.60;;;;;;;-143.48;33.54;118439.88;5075837;28;20031;-40
2023/06/14 08:00:06;;;;;;;7.38;2.58;;;;;;;-143.48;31.31;118439.88;5094174;28;20123;-40
2023/06/14 08:02:31;;;;;;;9.57;2.75;;;;;;;-143.48;30.61;118439.88;5093525;28;20088;-40
2023/06/14 08:04:57;;;;;;;7.18;2.80;;;;;;;-143.48;30.58;118439.88;5093756;28;20020;-40
2023/06/14 08:07:22;;;;;;;6.18;2.50;;;;;;;-143.48;30.67;118439.88;5093723;28;20087;-40
2023/06/14 08:09:48;;;;;;;6.47;2.50;;;;;;;-143.48;31.24;118439.88;5093491;28;20027;-40
2023/06/14 08:12:13;;;;;;;9.05;2.47;;;;;;;-143.48;30.35;118439.88;5093580;28;20039;-41
2023/06/14 08:14:40;;;;;;;4.18;2.25;;;;;;;-143.48;31.30;118439.88;5093396;28;20035;-41
2023/06/14 08:17:05;;;;;;;11.55;2.47;;;;;;;-143.48;31.06;118439.88;5093376;28;20084;-41
2023/06/14 08:19:31;;;;;;;6.85;2.38;;;;;;;-143.48;30.83;118439.88;5093442;28;20463;-40
2023/06/14 08:21:57;;;;;;;7.38;2.30;;;;;;;-143.48;31.43;118439.88;5098185;28;20027;-40
2023/06/14 08:24:26;;;;;;;7.50;2.30;;;;;;;-143.48;31.00;118439.88;5097370;28;20390;-40
2023/06/14 08:26:56;;;;;;;6.47;2.38;;;;;;;-143.48;31.04;118439.88;5097565;28;20089;-40
2023/06/14 08:29:21;;;;;;;4.20;2.00;;;;;;;-143.48;30.61;118439.88;5097883;28;20111;-40
2023/06/14 08:31:47;;;;;;;4.32;2.03;;;;;;;-143.48;29.93;118439.88;5097253;28;20020;-40
2023/06/14 08:34:12;;;;;;;8.07;2.05;;;;;;;-143.48;29.98;118439.88;5097290;28;20111;-40
2023/06/14 08:36:37;;;;;;;7.70;2.03;;;;;;;-143.48;29.56;118439.88;5097588;28;20085;-40
2023/06/14 08:39:03;;;;;;;6.05;1.83;;;;;;;-143.48;29.97;118439.88;5097117;28;20059;-40
2023/06/14 08:41:29;;;;;;;6.57;2.15;;;;;;;-143.48;29.92;118439.88;5097129;28;20542;-40
2023/06/14 08:43:55;;;;;;;4.47;2.00;;;;;;;-143.48;30.17;118439.88;5097217;28;20032;-40
2023/06/14 08:46:22;;;;;;;9.40;2.20;;;;;;;-143.48;29.53;118439.88;5097133;28;20391;-40
2023/06/14 08:48:56;;;;;;;8.20;2.28;;;;;;;-143.48;28.56;118439.88;5097090;28;20020;-40
2023/06/14 08:51:22;;;;;;;7.75;2.05;;;;;;;-143.48;29.04;118439.88;5097050;28;20402;-41
2023/06/14 08:53:52;;;;;;;8.18;2.05;;;;;;;-143.48;29.18;118439.88;5097228;28;20024;-41
2023/06/14 08:56:18;;;;;;;16.10;2.20;;;;;;;-143.48;28.72;118439.88;5096952;28;20027;-40
2023/06/14 08:58:45;;;;;;;10.88;2.20;;;;;;;-143.48;28.36;118439.88;5096845;28;20078;-41
2023/06/14 09:01:16;;;;;;;6.78;2.40;;;;;;;-143.48;28.79;118439.88;5097354;28;20098;-40
2023/06/14 09:03:42;;;;;;;6.07;1.83;;;;;;;-143.48;28.31;118439.88;5097356;28;20016;-41
2023/06/14 09:06:13;;;;;;;3.67;2.00;;;;;;;-143.48;28.72;118439.88;5096686;28;20020;-40
2023/06/14 09:08:48;;;;;;;5.57;2.00;;;;;;;-143.48;28.45;118439.88;5096740;28;20043;-41
2023/06/14 09:11:15;;;;;;;4.20;1.90;;;;;;;-143.48;28.54;118439.88;5096647;28;20390;-39
2023/06/14 09:13:41;;;;;;;7.75;2.00;;;;;;;-143.48;29.43;118439.88;5096448;28;20020;-40
2023/06/14 09:16:08;;;;;;;3.65;1.90;;;;;;;-143.48;28.16;118439.88;5096288;28;20108;-40
2023/06/14 09:18:35;;;;;;;6.45;2.17;;;;;;;-143.48;27.90;118439.88;5096731;28;20024;-40
2023/06/14 09:21:00;;;;;;;11.85;2.00;;;;;;;-143.48;27.54;118439.88;5096379;28;20047;-40
2023/06/14 09:23:25;;;;;;;10.27;2.08;;;;;;;-143.48;27.87;118439.88;5096232;28;20382;-40
2023/06/14 09:25:51;;;;;;;2.90;1.98;;;;;;;-143.48;27.19;118439.88;5096618;28;20028;-39
2023/06/14 09:28:16;;;;;;;5.10;2.00;;;;;;;-143.48;27.77;118439.88;5096330;28;20024;-40
2023/06/14 09:30:42;;;;;;;5.63;1.73;;;;;;;-143.48;28.23;118439.88;5096472;28;20544;-40
2023/06/14 09:33:08;;;;;;;8.02;1.92;;;;;;;-143.48;28.45;118439.88;5095553;28;20473;-40
2023/06/14 09:35:33;;;;;;;6.45;1.73;;;;;;;-143.48;27.94;118439.88;5096619;28;20031;-40
2023/06/14 09:37:58;;;;;;;7.15;2.00;;;;;;;-143.48;28.31;118439.88;5096088;28;20462;-40
2023/06/14 09:40:24;;;;;;;11.93;1.85;;;;;;;-143.48;28.17;118439.88;5095981;28;20023;-41
2023/06/14 09:42:51;;;;;;;3.25;1.92;;;;;;;-143.48;28.01;118439.88;5096346;28;20096;-40
2023/06/14 09:45:21;;;;;;;6.63;1.90;;;;;;;-143.48;28.29;118439.88;5096573;28;20016;-41
2023/06/14 09:47:49;;;;;;;6.15;1.90;;;;;;;-143.48;28.74;118439.88;5095972;28;20070;-40
2023/06/14 09:50:14;;;;;;;3.28;1.95;;;;;;;-143.48;28.41;118439.88;5095889;28;20052;-40
2023/06/14 09:52:43;;;;;;;6.20;1.70;;;;;;;-143.48;28.83;118439.88;5095809;28;20097;-39
2023/06/14 09:55:13;;;;;;;5.80;2.00;;;;;;;-143.48;27.74;118439.88;5095780;28;20024;-39
2023/06/14 09:57:41;;;;;;;8.70;2.13;;;;;;;-143.48;28.14;118439.88;5096051;28;20020;-39
2023/06/14 10:00:11;;;;;;;5.18;2.08;;;;;;;-143.48;27.56;118439.88;5095744;28;20470;-40
2023/06/14 10:02:38;;;;;;;7.82;1.77;;;;;;;-143.48;27.96;118439.88;5095788;28;20016;-40
2023/06/14 10:05:06;;;;;;;4.47;2.00;;;;;;;-143.48;28.22;118439.88;5095677;28;20520;-40
2023/06/14 10:07:47;;;;;;;4.28;1.90;;;;;;;-143.48;28.23;118439.88;5095499;28;20024;-40
2023/06/14 10:10:13;;;;;;;10.45;2.08;;;;;;;-143.48;26.43;118439.88;5096136;28;20027;-40
2023/06/14 10:12:39;;;;;;;3.38;2.00;;;;;;;-143.48;26.65;118439.88;5077210;28;20463;-40
2023/06/14 10:15:08;;;;;;;6.55;1.90;;;;;;;-143.48;26.40;118439.88;5095448;28;20020;-39
2023/06/14 10:17:48;;;;;;;3.72;1.80;;;;;;;-143.48;26.92;118439.88;5077740;28;20082;-39
2023/06/14 10:20:17;;;;;;;5.45;1.80;;;;;;;-143.48;27.31;118439.88;5095526;28;20157;-39
2023/06/14 10:22:49;;;;;;;3.83;1.80;;;;;;;-143.48;26.73;118439.88;5095491;28;20098;-39
2023/06/14 10:25:31;;;;;;;3.88;1.60;;;;;;;-143.48;26.62;118439.88;5094060;28;20468;-39
2023/06/14 10:28:11;;;;;;;4.65;2.10;;;;;;;-143.48;27.17;118439.88;5093024;28;20028;-40
2023/06/14 10:30:37;;;;;;;3.08;1.90;;;;;;;-143.48;26.86;118439.88;5093004;28;20475;-39
2023/06/14 10:33:07;;;;;;;4.70;1.80;;;;;;;-143.48;27.81;118439.88;5094225;28;20031;-39
2023/06/14 10:35:33;;;;;;;3.83;1.70;;;;;;;-143.48;27.36;118439.88;5094607;28;20031;-39
2023/06/14 10:38:09;;;;;;;4.80;1.90;;;;;;;-143.48;26.19;118439.88;5094914;28;20028;-39
2023/06/14 10:40:35;;;;;;;5.32;1.60;;;;;;;-143.48;26.32;118439.88;5094840;28;20067;-40
2023/06/14 10:43:00;;;;;;;2.47;1.60;;;;;;;-143.48;26.89;118439.88;5095060;28;20044;-39
2023/06/14 10:45:25;;;;;;;2.47;1.63;;;;;;;-143.48;26.78;118439.88;5094714;28;20153;-40
2023/06/14 10:47:52;;;;;;;3.15;1.70;;;;;;;-143.48;26.26;118439.88;5094667;28;20028;-41
2023/06/14 10:50:27;;;;;;;3.25;1.92;;;;;;;-143.48;27.31;118439.88;5093988;28;20040;-39
2023/06/14 10:52:53;;;;;;;4.10;1.75;;;;;;;-143.48;27.23;118439.88;5094159;28;20028;-39
2023/06/14 10:55:18;;;;;;;8.10;2.15;;;;;;;-143.48;26.77;118439.88;5094532;28;20466;-39
2023/06/14 10:57:51;;;;;;;3.17;1.60;;;;;;;-143.48;26.53;118439.88;5095154;28;20108;-40
2023/06/14 11:00:25;;;;;;;5.40;1.70;;;;;;;-143.48;26.16;118439.88;5094600;28;20016;-39
2023/06/14 11:03:09;;;;;;;9.85;2.08;;;;;;;-143.48;27.52;118439.88;5094653;28;20020;-39
2023/06/14 11:05:52;;;;;;;3.05;1.70;;;;;;;-143.48;26.92;118439.88;5094641;28;20111;-40